sensor_id;sensor_type;location;lat;lon;timestamp;P1;durP1;ratioP1;P2;durP2;ratioP2
15116;SDS011;7659;51.038;13.786;2022-07-29T00:01:32;10.10;;;6.77;;
15116;SDS011;7659;51.038;13.786;2022-07-29T00:03:57;12.57;;;7.63;;
15116;SDS011;7659;51.038;13.786;2022-07-29T00:06:23;12.43;;;7.70;;
15116;SDS011;7659;51.038;13.786;2022-07-29T00:08:49;12.13;;;8.03;;
15116;SDS011;7659;51.038;13.786;2022-07-29T00:11:14;9.60;;;8.00;;
15116;SDS011;7659;51.038;13.786;2022-07-29T00:13:40;12.67;;;7.27;;
15116;SDS011;7659;51.038;13.786;2022-07-29T00:16:05;10.23;;;7.47;;
15116;SDS011;7659;51.038;13.786;2022-07-29T00:18:31;13.03;;;7.77;;
15116;SDS011;7659;51.038;13.786;2022-07-29T00:20:56;12.23;;;6.83;;
15116;SDS011;7659;51.038;13.786;2022-07-29T00:23:22;9.27;;;6.43;;
15116;SDS011;7659;51.038;13.786;2022-07-29T00:25:47;9.57;;;7.07;;
15116;SDS011;7659;51.038;13.786;2022-07-29T00:28:13;8.37;;;6.20;;
15116;SDS011;7659;51.038;13.786;2022-07-29T00:30:38;15.20;;;5.63;;
15116;SDS011;7659;51.038;13.786;2022-07-29T00:33:05;12.47;;;4.83;;
15116;SDS011;7659;51.038;13.786;2022-07-29T00:35:30;11.43;;;5.43;;
15116;SDS011;7659;51.038;13.786;2022-07-29T00:38:15;14.50;;;6.23;;
15116;SDS011;7659;51.038;13.786;2022-07-29T00:40:40;13.50;;;5.90;;
15116;SDS011;7659;51.038;13.786;2022-07-29T00:43:06;9.17;;;5.83;;
15116;SDS011;7659;51.038;13.786;2022-07-29T00:45:32;15.40;;;6.53;;
15116;SDS011;7659;51.038;13.786;2022-07-29T00:47:57;9.47;;;5.97;;
15116;SDS011;7659;51.038;13.786;2022-07-29T00:50:23;9.90;;;6.37;;
15116;SDS011;7659;51.038;13.786;2022-07-29T00:52:49;9.23;;;6.77;;
15116;SDS011;7659;51.038;13.786;2022-07-29T00:55:15;16.60;;;8.93;;
15116;SDS011;7659;51.038;13.786;2022-07-29T00:57:41;11.37;;;8.10;;
15116;SDS011;7659;51.038;13.786;2022-07-29T01:00:08;11.47;;;8.90;;
15116;SDS011;7659;51.038;13.786;2022-07-29T01:02:34;16.67;;;8.87;;
15116;SDS011;7659;51.038;13.786;2022-07-29T01:05:00;15.67;;;9.03;;
15116;SDS011;7659;51.038;13.786;2022-07-29T01:07:26;15.50;;;9.80;;
15116;SDS011;7659;51.038;13.786;2022-07-29T01:09:53;11.10;;;9.10;;
15116;SDS011;7659;51.038;13.786;2022-07-29T01:12:24;14.80;;;9.27;;
15116;SDS011;7659;51.038;13.786;2022-07-29T01:14:50;13.03;;;9.33;;
15116;SDS011;7659;51.038;13.786;2022-07-29T01:17:21;13.23;;;10.13;;
15116;SDS011;7659;51.038;13.786;2022-07-29T01:20:10;19.53;;;11.10;;
15116;SDS011;7659;51.038;13.786;2022-07-29T01:30:40;15.63;;;11.57;;
15116;SDS011;7659;51.038;13.786;2022-07-29T01:33:07;11.93;;;10.77;;
15116;SDS011;7659;51.038;13.786;2022-07-29T01:35:36;15.50;;;11.73;;
15116;SDS011;7659;51.038;13.786;2022-07-29T01:42:55;13.30;;;11.90;;
15116;SDS011;7659;51.038;13.786;2022-07-29T01:45:31;14.70;;;11.90;;
15116;SDS011;7659;51.038;13.786;2022-07-29T01:48:00;14.00;;;11.53;;
15116;SDS011;7659;51.038;13.786;2022-07-29T01:50:30;12.53;;;11.20;;
15116;SDS011;7659;51.038;13.786;2022-07-29T01:52:56;13.80;;;11.50;;
15116;SDS011;7659;51.038;13.786;2022-07-29T01:55:25;12.50;;;10.40;;
15116;SDS011;7659;51.038;13.786;2022-07-29T01:57:52;12.27;;;10.57;;
15116;SDS011;7659;51.038;13.786;2022-07-29T02:00:17;20.00;;;11.60;;
15116;SDS011;7659;51.038;13.786;2022-07-29T02:02:44;13.87;;;12.37;;
15116;SDS011;7659;51.038;13.786;2022-07-29T02:05:12;18.73;;;13.63;;
15116;SDS011;7659;51.038;13.786;2022-07-29T02:07:38;15.87;;;13.27;;
15116;SDS011;7659;51.038;13.786;2022-07-29T02:10:05;24.83;;;16.30;;
15116;SDS011;7659;51.038;13.786;2022-07-29T02:12:32;20.30;;;18.17;;
15116;SDS011;7659;51.038;13.786;2022-07-29T02:14:58;27.40;;;23.23;;
15116;SDS011;7659;51.038;13.786;2022-07-29T02:17:25;32.07;;;28.20;;
15116;SDS011;7659;51.038;13.786;2022-07-29T02:19:52;31.00;;;28.07;;
15116;SDS011;7659;51.038;13.786;2022-07-29T02:22:18;31.50;;;28.40;;
15116;SDS011;7659;51.038;13.786;2022-07-29T02:24:45;36.47;;;33.17;;
15116;SDS011;7659;51.038;13.786;2022-07-29T02:27:11;39.73;;;35.97;;
15116;SDS011;7659;51.038;13.786;2022-07-29T02:29:37;41.43;;;37.17;;
15116;SDS011;7659;51.038;13.786;2022-07-29T02:32:03;43.00;;;38.53;;
15116;SDS011;7659;51.038;13.786;2022-07-29T02:34:29;42.53;;;38.83;;
15116;SDS011;7659;51.038;13.786;2022-07-29T02:36:56;42.27;;;38.37;;
15116;SDS011;7659;51.038;13.786;2022-07-29T02:39:21;43.33;;;39.67;;
15116;SDS011;7659;51.038;13.786;2022-07-29T02:41:51;45.47;;;40.30;;
15116;SDS011;7659;51.038;13.786;2022-07-29T02:44:18;47.63;;;43.13;;
15116;SDS011;7659;51.038;13.786;2022-07-29T02:46:51;50.50;;;45.03;;
15116;SDS011;7659;51.038;13.786;2022-07-29T02:49:32;48.77;;;44.10;;
15116;SDS011;7659;51.038;13.786;2022-07-29T02:52:03;46.40;;;42.27;;
15116;SDS011;7659;51.038;13.786;2022-07-29T02:57:01;48.10;;;43.87;;
15116;SDS011;7659;51.038;13.786;2022-07-29T02:59:29;50.90;;;45.93;;
15116;SDS011;7659;51.038;13.786;2022-07-29T03:01:56;51.60;;;47.00;;
15116;SDS011;7659;51.038;13.786;2022-07-29T03:04:23;56.03;;;50.27;;
15116;SDS011;7659;51.038;13.786;2022-07-29T03:06:49;56.97;;;52.20;;
15116;SDS011;7659;51.038;13.786;2022-07-29T03:09:16;56.80;;;51.47;;
15116;SDS011;7659;51.038;13.786;2022-07-29T03:11:42;55.17;;;50.53;;
15116;SDS011;7659;51.038;13.786;2022-07-29T03:14:09;53.17;;;48.47;;
15116;SDS011;7659;51.038;13.786;2022-07-29T03:16:34;55.07;;;50.13;;
15116;SDS011;7659;51.038;13.786;2022-07-29T03:19:01;53.20;;;48.47;;
15116;SDS011;7659;51.038;13.786;2022-07-29T03:21:29;49.63;;;45.17;;
15116;SDS011;7659;51.038;13.786;2022-07-29T03:23:54;48.63;;;44.30;;
15116;SDS011;7659;51.038;13.786;2022-07-29T03:26:20;48.10;;;43.63;;
15116;SDS011;7659;51.038;13.786;2022-07-29T03:28:45;50.27;;;45.30;;
15116;SDS011;7659;51.038;13.786;2022-07-29T03:31:11;48.07;;;43.77;;
15116;SDS011;7659;51.038;13.786;2022-07-29T03:33:36;53.87;;;49.23;;
15116;SDS011;7659;51.038;13.786;2022-07-29T03:36:02;51.30;;;46.37;;
15116;SDS011;7659;51.038;13.786;2022-07-29T03:38:28;53.87;;;49.27;;
15116;SDS011;7659;51.038;13.786;2022-07-29T03:40:56;60.50;;;54.73;;
15116;SDS011;7659;51.038;13.786;2022-07-29T03:43:23;56.97;;;51.97;;
15116;SDS011;7659;51.038;13.786;2022-07-29T03:45:51;65.47;;;59.77;;
15116;SDS011;7659;51.038;13.786;2022-07-29T03:48:19;69.37;;;63.53;;
15116;SDS011;7659;51.038;13.786;2022-07-29T03:50:45;74.43;;;67.00;;
15116;SDS011;7659;51.038;13.786;2022-07-29T03:53:11;74.40;;;67.80;;
15116;SDS011;7659;51.038;13.786;2022-07-29T03:55:40;75.27;;;68.63;;
15116;SDS011;7659;51.038;13.786;2022-07-29T03:58:06;75.47;;;68.63;;
15116;SDS011;7659;51.038;13.786;2022-07-29T04:00:33;73.63;;;66.63;;
15116;SDS011;7659;51.038;13.786;2022-07-29T04:02:59;71.23;;;65.20;;
15116;SDS011;7659;51.038;13.786;2022-07-29T04:05:24;72.43;;;66.10;;
15116;SDS011;7659;51.038;13.786;2022-07-29T04:07:50;72.40;;;65.47;;
15116;SDS011;7659;51.038;13.786;2022-07-29T04:10:16;71.27;;;64.73;;
15116;SDS011;7659;51.038;13.786;2022-07-29T04:12:42;68.17;;;61.90;;
15116;SDS011;7659;51.038;13.786;2022-07-29T04:15:08;70.40;;;63.90;;
15116;SDS011;7659;51.038;13.786;2022-07-29T04:17:33;69.30;;;63.37;;
15116;SDS011;7659;51.038;13.786;2022-07-29T04:19:59;70.13;;;63.60;;
15116;SDS011;7659;51.038;13.786;2022-07-29T04:22:24;67.17;;;61.53;;
15116;SDS011;7659;51.038;13.786;2022-07-29T04:24:50;66.37;;;60.87;;
15116;SDS011;7659;51.038;13.786;2022-07-29T04:27:15;65.33;;;59.17;;
15116;SDS011;7659;51.038;13.786;2022-07-29T04:29:41;67.63;;;61.27;;
15116;SDS011;7659;51.038;13.786;2022-07-29T04:32:06;68.90;;;62.87;;
15116;SDS011;7659;51.038;13.786;2022-07-29T04:34:32;67.77;;;61.87;;
15116;SDS011;7659;51.038;13.786;2022-07-29T04:36:57;66.20;;;60.30;;
15116;SDS011;7659;51.038;13.786;2022-07-29T04:39:23;68.33;;;61.97;;
15116;SDS011;7659;51.038;13.786;2022-07-29T04:41:49;68.13;;;60.93;;
15116;SDS011;7659;51.038;13.786;2022-07-29T04:44:15;65.57;;;59.77;;
15116;SDS011;7659;51.038;13.786;2022-07-29T04:46:40;64.00;;;58.33;;
15116;SDS011;7659;51.038;13.786;2022-07-29T04:49:06;63.53;;;58.47;;
15116;SDS011;7659;51.038;13.786;2022-07-29T04:51:31;62.40;;;56.87;;
15116;SDS011;7659;51.038;13.786;2022-07-29T04:53:57;65.57;;;59.97;;
15116;SDS011;7659;51.038;13.786;2022-07-29T04:56:22;64.13;;;58.50;;
15116;SDS011;7659;51.038;13.786;2022-07-29T04:58:48;66.90;;;60.70;;
15116;SDS011;7659;51.038;13.786;2022-07-29T05:01:14;65.63;;;59.27;;
15116;SDS011;7659;51.038;13.786;2022-07-29T05:03:39;64.80;;;59.47;;
15116;SDS011;7659;51.038;13.786;2022-07-29T05:06:05;64.80;;;58.30;;
15116;SDS011;7659;51.038;13.786;2022-07-29T05:08:30;65.50;;;59.40;;
15116;SDS011;7659;51.038;13.786;2022-07-29T05:10:56;62.27;;;56.63;;
15116;SDS011;7659;51.038;13.786;2022-07-29T05:13:21;62.63;;;57.07;;
15116;SDS011;7659;51.038;13.786;2022-07-29T05:15:47;63.43;;;57.53;;
15116;SDS011;7659;51.038;13.786;2022-07-29T05:18:12;65.37;;;59.27;;
15116;SDS011;7659;51.038;13.786;2022-07-29T05:20:38;65.97;;;60.30;;
15116;SDS011;7659;51.038;13.786;2022-07-29T05:23:03;70.77;;;63.73;;
15116;SDS011;7659;51.038;13.786;2022-07-29T05:25:29;73.87;;;66.87;;
15116;SDS011;7659;51.038;13.786;2022-07-29T05:27:54;79.80;;;72.07;;
15116;SDS011;7659;51.038;13.786;2022-07-29T05:30:20;84.13;;;76.33;;
15116;SDS011;7659;51.038;13.786;2022-07-29T05:32:46;79.83;;;72.20;;
15116;SDS011;7659;51.038;13.786;2022-07-29T05:35:12;82.50;;;74.83;;
15116;SDS011;7659;51.038;13.786;2022-07-29T05:37:38;77.23;;;70.27;;
15116;SDS011;7659;51.038;13.786;2022-07-29T05:40:04;71.63;;;64.80;;
15116;SDS011;7659;51.038;13.786;2022-07-29T05:42:30;68.93;;;62.10;;
15116;SDS011;7659;51.038;13.786;2022-07-29T05:44:55;69.37;;;63.03;;
15116;SDS011;7659;51.038;13.786;2022-07-29T05:47:21;65.93;;;59.67;;
15116;SDS011;7659;51.038;13.786;2022-07-29T05:49:47;66.40;;;59.13;;
15116;SDS011;7659;51.038;13.786;2022-07-29T05:52:12;70.70;;;64.17;;
15116;SDS011;7659;51.038;13.786;2022-07-29T05:54:38;69.67;;;63.23;;
15116;SDS011;7659;51.038;13.786;2022-07-29T05:57:04;65.63;;;59.83;;
15116;SDS011;7659;51.038;13.786;2022-07-29T05:59:30;60.60;;;55.30;;
15116;SDS011;7659;51.038;13.786;2022-07-29T06:01:56;60.20;;;55.20;;
15116;SDS011;7659;51.038;13.786;2022-07-29T06:04:22;61.33;;;56.10;;
15116;SDS011;7659;51.038;13.786;2022-07-29T06:06:47;61.83;;;56.03;;
15116;SDS011;7659;51.038;13.786;2022-07-29T06:09:13;67.57;;;61.63;;
15116;SDS011;7659;51.038;13.786;2022-07-29T06:11:39;66.80;;;60.80;;
15116;SDS011;7659;51.038;13.786;2022-07-29T06:14:04;67.27;;;60.77;;
15116;SDS011;7659;51.038;13.786;2022-07-29T06:16:30;66.53;;;60.33;;
15116;SDS011;7659;51.038;13.786;2022-07-29T06:18:55;65.93;;;59.77;;
15116;SDS011;7659;51.038;13.786;2022-07-29T06:21:21;65.10;;;59.37;;
15116;SDS011;7659;51.038;13.786;2022-07-29T06:23:46;62.33;;;55.43;;
15116;SDS011;7659;51.038;13.786;2022-07-29T06:26:12;61.13;;;56.13;;
15116;SDS011;7659;51.038;13.786;2022-07-29T06:28:38;61.80;;;55.83;;
15116;SDS011;7659;51.038;13.786;2022-07-29T06:31:04;61.57;;;55.83;;
15116;SDS011;7659;51.038;13.786;2022-07-29T06:33:30;58.23;;;53.47;;
15116;SDS011;7659;51.038;13.786;2022-07-29T06:35:55;58.43;;;53.53;;
15116;SDS011;7659;51.038;13.786;2022-07-29T06:38:21;56.37;;;51.20;;
15116;SDS011;7659;51.038;13.786;2022-07-29T06:40:46;52.30;;;46.93;;
15116;SDS011;7659;51.038;13.786;2022-07-29T06:43:32;48.70;;;43.63;;
15116;SDS011;7659;51.038;13.786;2022-07-29T06:45:59;47.53;;;43.13;;
15116;SDS011;7659;51.038;13.786;2022-07-29T06:48:25;44.43;;;40.37;;
15116;SDS011;7659;51.038;13.786;2022-07-29T06:50:51;52.83;;;48.13;;
15116;SDS011;7659;51.038;13.786;2022-07-29T06:53:17;50.67;;;45.67;;
15116;SDS011;7659;51.038;13.786;2022-07-29T06:55:42;49.73;;;45.50;;
15116;SDS011;7659;51.038;13.786;2022-07-29T06:58:08;55.03;;;49.90;;
15116;SDS011;7659;51.038;13.786;2022-07-29T07:00:34;61.73;;;55.07;;
15116;SDS011;7659;51.038;13.786;2022-07-29T07:03:00;60.05;;;53.47;;
15116;SDS011;7659;51.038;13.786;2022-07-29T07:05:26;60.17;;;53.33;;
15116;SDS011;7659;51.038;13.786;2022-07-29T07:07:51;62.83;;;56.75;;
15116;SDS011;7659;51.038;13.786;2022-07-29T07:10:17;66.28;;;60.08;;
15116;SDS011;7659;51.038;13.786;2022-07-29T07:12:42;66.22;;;59.88;;
15116;SDS011;7659;51.038;13.786;2022-07-29T07:15:07;61.63;;;55.85;;
15116;SDS011;7659;51.038;13.786;2022-07-29T07:17:33;65.30;;;58.42;;
15116;SDS011;7659;51.038;13.786;2022-07-29T07:19:59;58.25;;;52.20;;
15116;SDS011;7659;51.038;13.786;2022-07-29T07:22:24;60.75;;;55.22;;
15116;SDS011;7659;51.038;13.786;2022-07-29T07:24:50;59.92;;;54.72;;
15116;SDS011;7659;51.038;13.786;2022-07-29T07:27:15;55.28;;;49.38;;
15116;SDS011;7659;51.038;13.786;2022-07-29T07:29:41;53.30;;;47.88;;
15116;SDS011;7659;51.038;13.786;2022-07-29T07:32:06;52.05;;;46.97;;
15116;SDS011;7659;51.038;13.786;2022-07-29T07:34:32;51.25;;;46.38;;
15116;SDS011;7659;51.038;13.786;2022-07-29T07:36:58;52.55;;;47.00;;
15116;SDS011;7659;51.038;13.786;2022-07-29T07:39:23;49.92;;;45.20;;
15116;SDS011;7659;51.038;13.786;2022-07-29T07:41:49;50.53;;;45.58;;
15116;SDS011;7659;51.038;13.786;2022-07-29T07:44:14;51.15;;;45.63;;
15116;SDS011;7659;51.038;13.786;2022-07-29T07:46:40;46.35;;;41.60;;
15116;SDS011;7659;51.038;13.786;2022-07-29T07:49:05;44.17;;;39.13;;
15116;SDS011;7659;51.038;13.786;2022-07-29T07:51:31;43.70;;;39.22;;
15116;SDS011;7659;51.038;13.786;2022-07-29T07:53:56;46.72;;;39.05;;
15116;SDS011;7659;51.038;13.786;2022-07-29T07:56:21;47.42;;;39.08;;
15116;SDS011;7659;51.038;13.786;2022-07-29T07:58:47;43.90;;;39.35;;
15116;SDS011;7659;51.038;13.786;2022-07-29T08:01:12;41.35;;;37.35;;
15116;SDS011;7659;51.038;13.786;2022-07-29T08:03:38;43.17;;;35.90;;
15116;SDS011;7659;51.038;13.786;2022-07-29T08:06:04;40.63;;;37.17;;
15116;SDS011;7659;51.038;13.786;2022-07-29T08:08:29;41.30;;;37.22;;
15116;SDS011;7659;51.038;13.786;2022-07-29T08:10:55;40.58;;;36.25;;
15116;SDS011;7659;51.038;13.786;2022-07-29T08:13:21;42.95;;;38.53;;
15116;SDS011;7659;51.038;13.786;2022-07-29T08:15:47;46.22;;;38.55;;
15116;SDS011;7659;51.038;13.786;2022-07-29T08:18:23;41.28;;;37.60;;
15116;SDS011;7659;51.038;13.786;2022-07-29T08:20:49;40.22;;;36.45;;
15116;SDS011;7659;51.038;13.786;2022-07-29T08:23:14;37.72;;;34.28;;
15116;SDS011;7659;51.038;13.786;2022-07-29T08:25:40;39.95;;;34.30;;
15116;SDS011;7659;51.038;13.786;2022-07-29T08:28:06;37.42;;;33.78;;
15116;SDS011;7659;51.038;13.786;2022-07-29T08:30:32;36.97;;;33.25;;
15116;SDS011;7659;51.038;13.786;2022-07-29T08:32:58;35.50;;;32.08;;
15116;SDS011;7659;51.038;13.786;2022-07-29T08:35:24;34.35;;;31.55;;
15116;SDS011;7659;51.038;13.786;2022-07-29T08:37:50;36.95;;;30.77;;
15116;SDS011;7659;51.038;13.786;2022-07-29T08:40:16;32.13;;;29.48;;
15116;SDS011;7659;51.038;13.786;2022-07-29T08:42:41;33.10;;;29.90;;
15116;SDS011;7659;51.038;13.786;2022-07-29T08:45:07;34.05;;;30.50;;
15116;SDS011;7659;51.038;13.786;2022-07-29T08:47:32;32.17;;;28.90;;
15116;SDS011;7659;51.038;13.786;2022-07-29T08:49:58;32.85;;;29.50;;
15116;SDS011;7659;51.038;13.786;2022-07-29T08:52:24;32.92;;;29.95;;
15116;SDS011;7659;51.038;13.786;2022-07-29T08:54:50;34.00;;;27.08;;
15116;SDS011;7659;51.038;13.786;2022-07-29T08:57:17;33.58;;;30.10;;
15116;SDS011;7659;51.038;13.786;2022-07-29T08:59:43;29.60;;;25.55;;
15116;SDS011;7659;51.038;13.786;2022-07-29T09:02:15;31.67;;;28.05;;
15116;SDS011;7659;51.038;13.786;2022-07-29T09:04:43;27.85;;;24.98;;
15116;SDS011;7659;51.038;13.786;2022-07-29T09:07:10;30.35;;;27.30;;
15116;SDS011;7659;51.038;13.786;2022-07-29T09:09:39;31.15;;;28.42;;
15116;SDS011;7659;51.038;13.786;2022-07-29T09:12:05;31.38;;;28.27;;
15116;SDS011;7659;51.038;13.786;2022-07-29T09:14:32;37.35;;;33.42;;
15116;SDS011;7659;51.038;13.786;2022-07-29T09:16:58;33.63;;;30.33;;
15116;SDS011;7659;51.038;13.786;2022-07-29T09:19:25;32.95;;;27.40;;
15116;SDS011;7659;51.038;13.786;2022-07-29T09:21:51;30.90;;;27.42;;
15116;SDS011;7659;51.038;13.786;2022-07-29T09:24:26;30.60;;;26.98;;
15116;SDS011;7659;51.038;13.786;2022-07-29T09:26:52;28.48;;;25.73;;
15116;SDS011;7659;51.038;13.786;2022-07-29T09:29:19;30.08;;;26.90;;
15116;SDS011;7659;51.038;13.786;2022-07-29T09:31:45;30.60;;;28.05;;
15116;SDS011;7659;51.038;13.786;2022-07-29T09:34:12;32.55;;;28.92;;
15116;SDS011;7659;51.038;13.786;2022-07-29T09:36:46;32.80;;;29.80;;
15116;SDS011;7659;51.038;13.786;2022-07-29T09:39:12;30.60;;;28.00;;
15116;SDS011;7659;51.038;13.786;2022-07-29T09:44:12;33.35;;;30.10;;
15116;SDS011;7659;51.038;13.786;2022-07-29T09:46:37;33.05;;;30.00;;
15116;SDS011;7659;51.038;13.786;2022-07-29T09:49:10;34.63;;;31.25;;
15116;SDS011;7659;51.038;13.786;2022-07-29T09:51:35;31.70;;;28.75;;
15116;SDS011;7659;51.038;13.786;2022-07-29T09:54:02;33.70;;;30.50;;
15116;SDS011;7659;51.038;13.786;2022-07-29T09:56:39;30.77;;;28.25;;
15116;SDS011;7659;51.038;13.786;2022-07-29T09:59:05;31.85;;;28.83;;
15116;SDS011;7659;51.038;13.786;2022-07-29T10:01:31;34.08;;;30.63;;
15116;SDS011;7659;51.038;13.786;2022-07-29T10:03:56;32.40;;;29.33;;
15116;SDS011;7659;51.038;13.786;2022-07-29T10:06:21;29.83;;;27.17;;
15116;SDS011;7659;51.038;13.786;2022-07-29T10:08:47;32.65;;;29.40;;
15116;SDS011;7659;51.038;13.786;2022-07-29T10:11:17;31.38;;;28.17;;
15116;SDS011;7659;51.038;13.786;2022-07-29T10:13:44;31.00;;;28.02;;
15116;SDS011;7659;51.038;13.786;2022-07-29T10:16:10;24.75;;;22.60;;
15116;SDS011;7659;51.038;13.786;2022-07-29T10:18:37;22.92;;;20.92;;
15116;SDS011;7659;51.038;13.786;2022-07-29T10:21:03;23.85;;;18.80;;
15116;SDS011;7659;51.038;13.786;2022-07-29T10:23:29;21.60;;;19.15;;
15116;SDS011;7659;51.038;13.786;2022-07-29T10:25:54;20.25;;;18.55;;
15116;SDS011;7659;51.038;13.786;2022-07-29T10:28:20;22.17;;;20.10;;
15116;SDS011;7659;51.038;13.786;2022-07-29T10:30:46;22.00;;;19.92;;
15116;SDS011;7659;51.038;13.786;2022-07-29T10:43:49;8.75;;;7.88;;
15116;SDS011;7659;51.038;13.786;2022-07-29T10:46:16;8.05;;;7.35;;
15116;SDS011;7659;51.038;13.786;2022-07-29T10:51:39;7.70;;;6.65;;
15116;SDS011;7659;51.038;13.786;2022-07-29T10:54:12;7.55;;;6.30;;
15116;SDS011;7659;51.038;13.786;2022-07-29T10:56:38;8.98;;;6.45;;
15116;SDS011;7659;51.038;13.786;2022-07-29T10:59:26;6.70;;;6.07;;
15116;SDS011;7659;51.038;13.786;2022-07-29T11:01:53;6.95;;;6.32;;
15116;SDS011;7659;51.038;13.786;2022-07-29T11:07:11;5.65;;;5.15;;
15116;SDS011;7659;51.038;13.786;2022-07-29T11:09:38;10.35;;;6.13;;
15116;SDS011;7659;51.038;13.786;2022-07-29T11:12:04;6.68;;;6.00;;
15116;SDS011;7659;51.038;13.786;2022-07-29T11:14:56;10.55;;;6.15;;
15116;SDS011;7659;51.038;13.786;2022-07-29T11:17:21;7.80;;;5.85;;
15116;SDS011;7659;51.038;13.786;2022-07-29T11:19:47;7.30;;;4.97;;
15116;SDS011;7659;51.038;13.786;2022-07-29T11:22:30;8.23;;;6.47;;
15116;SDS011;7659;51.038;13.786;2022-07-29T11:25:15;5.97;;;5.47;;
15116;SDS011;7659;51.038;13.786;2022-07-29T11:27:41;7.30;;;5.93;;
15116;SDS011;7659;51.038;13.786;2022-07-29T11:30:07;5.97;;;5.35;;
15116;SDS011;7659;51.038;13.786;2022-07-29T11:32:50;7.05;;;6.28;;
15116;SDS011;7659;51.038;13.786;2022-07-29T11:35:17;7.70;;;6.97;;
15116;SDS011;7659;51.038;13.786;2022-07-29T11:37:42;6.90;;;6.30;;
15116;SDS011;7659;51.038;13.786;2022-07-29T11:40:09;7.65;;;6.95;;
15116;SDS011;7659;51.038;13.786;2022-07-29T11:47:33;8.13;;;6.75;;
15116;SDS011;7659;51.038;13.786;2022-07-29T11:49:59;12.02;;;6.40;;
15116;SDS011;7659;51.038;13.786;2022-07-29T11:52:38;8.40;;;6.50;;
15116;SDS011;7659;51.038;13.786;2022-07-29T11:55:12;10.43;;;7.35;;
15116;SDS011;7659;51.038;13.786;2022-07-29T11:57:44;10.00;;;7.22;;
15116;SDS011;7659;51.038;13.786;2022-07-29T12:00:11;14.00;;;6.53;;
15116;SDS011;7659;51.038;13.786;2022-07-29T12:02:38;7.40;;;6.68;;
15116;SDS011;7659;51.038;13.786;2022-07-29T12:05:03;7.55;;;6.93;;
15116;SDS011;7659;51.038;13.786;2022-07-29T12:07:30;7.03;;;6.53;;
15116;SDS011;7659;51.038;13.786;2022-07-29T12:09:55;13.98;;;7.47;;
15116;SDS011;7659;51.038;13.786;2022-07-29T12:12:21;7.95;;;7.18;;
15116;SDS011;7659;51.038;13.786;2022-07-29T12:14:48;7.45;;;6.75;;
15116;SDS011;7659;51.038;13.786;2022-07-29T12:17:29;8.05;;;7.35;;
15116;SDS011;7659;51.038;13.786;2022-07-29T12:19:55;9.27;;;7.05;;
15116;SDS011;7659;51.038;13.786;2022-07-29T12:22:24;10.05;;;7.88;;
15116;SDS011;7659;51.038;13.786;2022-07-29T12:24:50;8.10;;;7.50;;
15116;SDS011;7659;51.038;13.786;2022-07-29T12:27:16;7.53;;;6.93;;
15116;SDS011;7659;51.038;13.786;2022-07-29T12:29:42;7.75;;;6.97;;
15116;SDS011;7659;51.038;13.786;2022-07-29T12:32:07;9.05;;;7.65;;
15116;SDS011;7659;51.038;13.786;2022-07-29T12:34:34;8.10;;;7.30;;
15116;SDS011;7659;51.038;13.786;2022-07-29T12:36:59;12.75;;;6.85;;
15116;SDS011;7659;51.038;13.786;2022-07-29T12:39:26;10.40;;;7.50;;
15116;SDS011;7659;51.038;13.786;2022-07-29T12:41:53;6.97;;;6.30;;
15116;SDS011;7659;51.038;13.786;2022-07-29T12:44:18;9.73;;;6.80;;
15116;SDS011;7659;51.038;13.786;2022-07-29T12:46:44;8.60;;;6.10;;
15116;SDS011;7659;51.038;13.786;2022-07-29T12:49:20;8.07;;;7.25;;
15116;SDS011;7659;51.038;13.786;2022-07-29T12:51:46;12.95;;;7.80;;
15116;SDS011;7659;51.038;13.786;2022-07-29T12:54:13;9.50;;;7.82;;
15116;SDS011;7659;51.038;13.786;2022-07-29T12:56:40;13.57;;;8.20;;
15116;SDS011;7659;51.038;13.786;2022-07-29T13:01:40;9.00;;;8.30;;
15116;SDS011;7659;51.038;13.786;2022-07-29T13:04:06;8.65;;;6.90;;
15116;SDS011;7659;51.038;13.786;2022-07-29T13:06:33;10.57;;;6.90;;
15116;SDS011;7659;51.038;13.786;2022-07-29T13:09:00;8.18;;;7.38;;
15116;SDS011;7659;51.038;13.786;2022-07-29T13:11:30;7.90;;;7.10;;
15116;SDS011;7659;51.038;13.786;2022-07-29T13:13:56;9.90;;;6.13;;
15116;SDS011;7659;51.038;13.786;2022-07-29T13:16:21;7.55;;;6.95;;
15116;SDS011;7659;51.038;13.786;2022-07-29T13:18:47;8.48;;;7.43;;
15116;SDS011;7659;51.038;13.786;2022-07-29T13:21:13;8.65;;;7.60;;
15116;SDS011;7659;51.038;13.786;2022-07-29T13:23:39;7.10;;;6.50;;
15116;SDS011;7659;51.038;13.786;2022-07-29T13:26:08;8.23;;;6.70;;
15116;SDS011;7659;51.038;13.786;2022-07-29T13:28:34;8.05;;;7.32;;
15116;SDS011;7659;51.038;13.786;2022-07-29T13:31:00;7.22;;;6.35;;
15116;SDS011;7659;51.038;13.786;2022-07-29T13:33:25;8.35;;;5.93;;
15116;SDS011;7659;51.038;13.786;2022-07-29T13:35:51;6.53;;;5.97;;
15116;SDS011;7659;51.038;13.786;2022-07-29T13:38:16;6.32;;;5.70;;
15116;SDS011;7659;51.038;13.786;2022-07-29T13:40:42;6.75;;;6.10;;
15116;SDS011;7659;51.038;13.786;2022-07-29T13:43:11;8.77;;;6.78;;
15116;SDS011;7659;51.038;13.786;2022-07-29T13:45:36;6.90;;;6.40;;
15116;SDS011;7659;51.038;13.786;2022-07-29T13:48:02;7.15;;;6.55;;
15116;SDS011;7659;51.038;13.786;2022-07-29T13:50:27;11.82;;;7.18;;
15116;SDS011;7659;51.038;13.786;2022-07-29T13:52:53;11.93;;;6.55;;
15116;SDS011;7659;51.038;13.786;2022-07-29T13:55:18;6.93;;;6.30;;
15116;SDS011;7659;51.038;13.786;2022-07-29T13:57:44;7.35;;;6.60;;
15116;SDS011;7659;51.038;13.786;2022-07-29T14:00:10;8.73;;;6.55;;
15116;SDS011;7659;51.038;13.786;2022-07-29T14:02:36;8.70;;;6.78;;
15116;SDS011;7659;51.038;13.786;2022-07-29T14:05:04;7.68;;;7.07;;
15116;SDS011;7659;51.038;13.786;2022-07-29T14:07:29;12.02;;;6.93;;
15116;SDS011;7659;51.038;13.786;2022-07-29T14:09:55;7.03;;;6.43;;
15116;SDS011;7659;51.038;13.786;2022-07-29T14:12:20;11.50;;;7.78;;
15116;SDS011;7659;51.038;13.786;2022-07-29T14:14:46;7.93;;;7.35;;
15116;SDS011;7659;51.038;13.786;2022-07-29T14:17:11;7.10;;;6.53;;
15116;SDS011;7659;51.038;13.786;2022-07-29T14:19:37;7.25;;;6.00;;
15116;SDS011;7659;51.038;13.786;2022-07-29T14:22:03;8.07;;;5.93;;
15116;SDS011;7659;51.038;13.786;2022-07-29T14:24:29;9.35;;;8.60;;
15116;SDS011;7659;51.038;13.786;2022-07-29T14:26:54;9.98;;;9.05;;
15116;SDS011;7659;51.038;13.786;2022-07-29T14:29:20;8.45;;;6.60;;
15116;SDS011;7659;51.038;13.786;2022-07-29T14:31:46;8.98;;;8.38;;
15116;SDS011;7659;51.038;13.786;2022-07-29T14:34:11;11.63;;;10.77;;
15116;SDS011;7659;51.038;13.786;2022-07-29T14:36:37;10.60;;;9.98;;
15116;SDS011;7659;51.038;13.786;2022-07-29T14:39:02;9.23;;;8.43;;
15116;SDS011;7659;51.038;13.786;2022-07-29T14:41:28;8.50;;;7.80;;
15116;SDS011;7659;51.038;13.786;2022-07-29T14:43:53;8.52;;;7.78;;
15116;SDS011;7659;51.038;13.786;2022-07-29T14:46:19;8.77;;;8.10;;
15116;SDS011;7659;51.038;13.786;2022-07-29T14:48:44;9.27;;;8.48;;
15116;SDS011;7659;51.038;13.786;2022-07-29T14:51:10;9.45;;;8.75;;
15116;SDS011;7659;51.038;13.786;2022-07-29T14:53:35;8.27;;;7.47;;
15116;SDS011;7659;51.038;13.786;2022-07-29T14:56:01;7.82;;;7.10;;
15116;SDS011;7659;51.038;13.786;2022-07-29T14:58:27;11.32;;;10.35;;
15116;SDS011;7659;51.038;13.786;2022-07-29T15:00:52;11.50;;;10.52;;
15116;SDS011;7659;51.038;13.786;2022-07-29T15:03:19;12.48;;;11.52;;
15116;SDS011;7659;51.038;13.786;2022-07-29T15:05:45;12.80;;;11.65;;
15116;SDS011;7659;51.038;13.786;2022-07-29T15:08:10;13.18;;;12.38;;